createdAt,value
2023-03-11T00:01:58.535Z,94.12
2023-03-11T00:04:29.194Z,94.33
2023-03-11T00:07:00.455Z,94.17
2023-03-11T00:09:36.564Z,94.09
2023-03-11T00:12:07.728Z,94.14
2023-03-11T00:14:37.868Z,93.85
2023-03-11T00:17:11.161Z,94.00
2023-03-11T00:19:42.631Z,94.13
2023-03-11T00:22:12.949Z,94.32
2023-03-11T00:24:42.726Z,94.72
2023-03-11T00:27:13.246Z,94.66
2023-03-11T00:29:43.301Z,94.66
2023-03-11T00:32:14.743Z,94.85
2023-03-11T00:34:45.388Z,94.97
2023-03-11T00:37:15.262Z,94.81
2023-03-11T00:39:46.465Z,94.88
2023-03-11T00:42:19.808Z,95.09
2023-03-11T00:44:50.673Z,95.18
2023-03-11T00:47:20.718Z,95.24
2023-03-11T00:49:52.155Z,95.36
2023-03-11T00:52:22.729Z,95.09
2023-03-11T00:54:52.759Z,95.05
2023-03-11T00:57:24.717Z,95.26
2023-03-11T00:59:55.605Z,95.26
2023-03-11T01:02:27.944Z,95.50
2023-03-11T01:04:58.501Z,95.72
2023-03-11T01:07:28.320Z,95.69
2023-03-11T01:09:59.473Z,95.46
2023-03-11T01:12:34.076Z,94.83
2023-03-11T01:15:05.146Z,95.00
2023-03-11T01:17:35.788Z,94.85
2023-03-11T01:20:08.352Z,94.92
2023-03-11T01:22:40.065Z,94.93
2023-03-11T01:25:12.532Z,94.97
2023-03-11T01:27:43.146Z,94.99
2023-03-11T01:30:17.555Z,94.98
2023-03-11T01:32:49.521Z,95.10
2023-03-11T01:35:21.662Z,95.13
2023-03-11T01:37:52.173Z,95.49
2023-03-11T01:40:33.399Z,95.60
2023-03-11T01:43:29.521Z,95.45
2023-03-11T01:45:59.774Z,95.60
2023-03-11T01:48:30.470Z,95.75
2023-03-11T01:51:01.428Z,96.14
2023-03-11T01:53:31.736Z,96.50
2023-03-11T01:56:04.532Z,96.69
2023-03-11T01:58:39.444Z,96.73
2023-03-11T02:01:10.246Z,96.83
2023-03-11T02:03:43.458Z,96.77
2023-03-11T02:06:19.683Z,96.96
2023-03-11T02:08:50.539Z,96.94
2023-03-11T02:11:26.895Z,97.28
2023-03-11T02:14:02.998Z,97.35
2023-03-11T02:16:34.070Z,97.51
2023-03-11T02:19:33.401Z,97.53
2023-03-11T02:22:05.463Z,97.74
2023-03-11T02:24:53.185Z,97.90
2023-03-11T02:27:26.041Z,98.15
2023-03-11T02:29:58.000Z,98.16
2023-03-11T02:32:29.774Z,98.49
2023-03-11T02:35:01.905Z,98.73
2023-03-11T02:37:32.383Z,98.80
2023-03-11T02:40:25.399Z,98.60
2023-03-11T02:43:06.375Z,99.00
2023-03-11T02:45:41.185Z,99.19
2023-03-11T02:48:13.285Z,99.31
2023-03-11T02:50:43.534Z,99.38
2023-03-11T02:53:13.491Z,99.41
2023-03-11T02:55:44.846Z,99.37
2023-03-11T02:58:15.351Z,99.42
2023-03-11T03:00:47.035Z,99.60
2023-03-11T03:03:17.466Z,99.29
2023-03-11T03:05:48.581Z,99.33
2023-03-11T03:08:19.391Z,99.37
2023-03-11T03:10:50.599Z,99.54
2023-03-11T03:13:21.043Z,99.54
2023-03-11T03:15:50.924Z,99.73
2023-03-11T03:18:21.198Z,99.78
2023-03-11T03:20:52.477Z,99.82
2023-03-11T03:23:23.691Z,99.99
2023-03-11T03:25:53.734Z,99.98
2023-03-11T03:28:24.345Z,99.90
2023-03-11T03:30:54.467Z,99.74
2023-03-11T03:33:25.757Z,99.60
2023-03-11T03:35:56.240Z,99.69
2023-03-11T03:38:30.166Z,99.79
2023-03-11T03:41:01.369Z,99.96
2023-03-11T03:43:33.453Z,99.99
2023-03-11T03:46:07.061Z,99.99
2023-03-11T03:48:42.888Z,99.99
2023-03-11T03:51:16.515Z,99.99
2023-03-11T03:54:09.438Z,99.99
2023-03-11T03:56:40.748Z,99.99
2023-03-11T03:59:16.477Z,99.99
2023-03-11T04:01:52.547Z,99.99
2023-03-11T04:04:25.538Z,99.99
2023-03-11T04:06:56.191Z,99.99
2023-03-11T04:09:28.864Z,99.99
2023-03-11T04:11:59.750Z,99.99
2023-03-11T04:14:30.091Z,99.99
2023-03-11T04:17:03.207Z,99.99
2023-03-11T04:19:35.292Z,99.99
2023-03-11T04:22:07.311Z,99.99
2023-03-11T04:24:37.496Z,99.99
2023-03-11T04:27:07.480Z,99.99
2023-03-11T04:29:39.166Z,99.99
2023-03-11T04:32:10.094Z,99.99
2023-03-11T04:34:43.822Z,99.99
2023-03-11T04:37:17.143Z,99.99
2023-03-11T04:39:48.269Z,99.99
2023-03-11T04:42:20.245Z,99.99
2023-03-11T04:44:52.650Z,99.99
2023-03-11T04:47:23.344Z,99.99
2023-03-11T04:49:54.364Z,99.99
2023-03-11T04:52:25.610Z,99.99
2023-03-11T04:54:56.455Z,99.99
2023-03-11T04:57:27.284Z,99.99
2023-03-11T04:59:59.160Z,99.99
2023-03-11T05:02:29.856Z,99.99
2023-03-11T05:05:05.491Z,99.99
2023-03-11T05:07:35.468Z,99.99
2023-03-11T05:10:07.129Z,99.99
2023-03-11T05:12:39.825Z,99.99
2023-03-11T05:15:11.385Z,99.99
2023-03-11T05:17:41.685Z,99.99
2023-03-11T05:20:12.743Z,99.99
2023-03-11T05:22:45.169Z,99.99
2023-03-11T05:25:17.226Z,99.99
2023-03-11T05:27:47.393Z,99.99
2023-03-11T05:30:20.001Z,99.99
2023-03-11T05:32:51.665Z,99.99
2023-03-11T05:35:24.286Z,99.99
2023-03-11T05:37:56.921Z,99.99
2023-03-11T05:40:30.332Z,99.99
2023-03-11T05:43:01.485Z,99.99
2023-03-11T05:45:34.877Z,99.99
2023-03-11T05:48:05.504Z,99.99
2023-03-11T05:50:36.682Z,99.99
2023-03-11T05:53:07.622Z,99.99
2023-03-11T05:55:38.565Z,99.99
2023-03-11T05:58:08.860Z,99.99
2023-03-11T06:00:38.645Z,99.99
2023-03-11T06:03:08.662Z,99.99
2023-03-11T06:05:39.100Z,99.99
2023-03-11T06:08:10.271Z,99.99
2023-03-11T06:10:40.372Z,99.99
2023-03-11T06:13:11.117Z,99.99
2023-03-11T06:15:50.023Z,99.99
2023-03-11T06:18:22.275Z,99.99
2023-03-11T06:20:52.949Z,99.99
2023-03-11T06:23:24.002Z,99.99
2023-03-11T06:26:08.100Z,99.99
2023-03-11T06:28:44.883Z,99.99
2023-03-11T06:31:28.147Z,99.99
2023-03-11T06:34:05.256Z,99.99
2023-03-11T06:36:36.086Z,99.99
2023-03-11T06:39:07.995Z,99.99
2023-03-11T06:41:41.568Z,99.99
2023-03-11T06:44:14.307Z,99.99
2023-03-11T06:46:45.014Z,99.99
2023-03-11T06:49:16.807Z,99.99
2023-03-11T06:51:47.834Z,99.99
2023-03-11T06:54:18.560Z,99.99
2023-03-11T06:56:48.937Z,99.99
2023-03-11T06:59:18.729Z,99.99
2023-03-11T07:01:49.048Z,99.99
2023-03-11T07:04:23.006Z,99.99
2023-03-11T07:06:53.431Z,99.99
2023-03-11T07:09:26.410Z,99.99
2023-03-11T07:11:57.617Z,99.99
2023-03-11T07:14:34.005Z,99.99
2023-03-11T07:17:04.332Z,99.99
2023-03-11T07:19:39.614Z,99.99
2023-03-11T07:22:10.712Z,99.99
2023-03-11T07:24:41.567Z,99.99
2023-03-11T07:27:11.814Z,99.99
2023-03-11T07:29:41.851Z,99.99
2023-03-11T07:32:12.931Z,99.99
2023-03-11T07:34:43.446Z,99.99
2023-03-11T07:37:14.203Z,99.99
2023-03-11T07:39:44.538Z,99.99
2023-03-11T07:42:15.633Z,99.99
2023-03-11T07:44:46.609Z,99.99
2023-03-11T07:47:16.411Z,99.99
2023-03-11T07:49:46.896Z,99.99
2023-03-11T07:52:18.462Z,99.99
2023-03-11T07:54:50.378Z,99.99
2023-03-11T07:57:20.432Z,99.99
2023-03-11T07:59:50.183Z,99.99
2023-03-11T08:02:20.787Z,99.99
2023-03-11T08:04:51.132Z,99.99
2023-03-11T08:07:22.528Z,99.99
2023-03-11T08:09:52.904Z,99.99
2023-03-11T08:12:23.003Z,99.99
2023-03-11T08:14:52.977Z,99.99
2023-03-11T08:17:23.297Z,99.99
2023-03-11T08:19:53.696Z,99.99
2023-03-11T08:22:24.892Z,99.99
2023-03-11T08:24:56.513Z,99.99
2023-03-11T08:27:29.271Z,99.99
2023-03-11T08:30:00.529Z,99.99
2023-03-11T08:32:32.897Z,99.99
2023-03-11T08:35:04.050Z,99.99
2023-03-11T08:37:34.560Z,99.99
2023-03-11T08:40:04.858Z,99.99
2023-03-11T08:42:37.116Z,99.99
2023-03-11T08:45:07.945Z,99.99
2023-03-11T08:47:40.023Z,99.99
2023-03-11T08:50:15.934Z,99.99
2023-03-11T08:52:47.004Z,99.99
2023-03-11T08:55:24.835Z,99.99
2023-03-11T08:57:55.273Z,99.99
2023-03-11T09:00:25.879Z,99.99
2023-03-11T09:02:56.759Z,99.99
2023-03-11T09:05:27.800Z,99.99
2023-03-11T09:07:58.210Z,99.99
2023-03-11T09:10:28.739Z,99.99
2023-03-11T09:12:59.216Z,99.99
2023-03-11T09:15:29.255Z,99.99
2023-03-11T09:18:00.821Z,99.99
2023-03-11T09:20:32.219Z,99.99
2023-03-11T09:23:03.925Z,99.99
2023-03-11T09:25:34.235Z,99.99
2023-03-11T09:28:03.986Z,99.99
2023-03-11T09:30:35.120Z,99.99
2023-03-11T09:33:06.052Z,99.99
2023-03-11T09:35:40.179Z,99.99
2023-03-11T09:38:10.478Z,99.99
2023-03-11T09:40:55.531Z,99.99
2023-03-11T09:43:41.631Z,99.99
2023-03-11T09:46:47.108Z,99.99
2023-03-11T09:49:23.302Z,99.99
2023-03-11T09:52:12.112Z,99.99
2023-03-11T09:54:46.415Z,99.99
2023-03-11T09:57:24.885Z,99.99
2023-03-11T09:59:57.452Z,99.99
2023-03-11T10:02:29.302Z,99.99
2023-03-11T10:05:00.124Z,99.99
2023-03-11T10:07:35.792Z,99.99
2023-03-11T10:10:07.203Z,99.99
2023-03-11T10:12:47.023Z,99.99
2023-03-11T10:15:39.557Z,99.99
2023-03-11T10:18:32.724Z,99.99
2023-03-11T10:21:25.238Z,99.99
2023-03-11T10:24:04.974Z,99.99
2023-03-11T10:26:48.914Z,99.99
2023-03-11T10:29:56.714Z,99.99
2023-03-11T10:32:42.213Z,99.99
2023-03-11T10:35:20.924Z,99.99
2023-03-11T10:38:01.887Z,99.99
2023-03-11T10:40:36.467Z,99.99
2023-03-11T10:43:23.452Z,99.99
2023-03-11T10:45:55.440Z,99.99
2023-03-11T10:48:28.342Z,99.99
2023-03-11T10:51:12.677Z,99.42
2023-03-11T10:53:49.423Z,98.71
2023-03-11T10:56:34.792Z,98.30
2023-03-11T10:59:32.454Z,97.90
2023-03-11T11:02:21.205Z,97.68
2023-03-11T11:05:03.996Z,96.65
2023-03-11T11:07:43.260Z,94.76
2023-03-11T11:10:24.851Z,94.86
2023-03-11T11:12:56.986Z,95.80
2023-03-11T11:15:38.621Z,95.78
2023-03-11T11:18:25.544Z,96.33
2023-03-11T11:21:19.504Z,94.88
2023-03-11T11:24:13.849Z,93.38
2023-03-11T11:27:03.954Z,90.49
2023-03-11T11:29:36.390Z,89.33
2023-03-11T11:32:38.941Z,89.80
2023-03-11T11:35:14.435Z,90.87
2023-03-11T11:37:47.574Z,91.33
2023-03-11T11:40:18.268Z,86.73
2023-03-11T11:42:58.527Z,81.70
2023-03-11T11:45:41.523Z,79.72
2023-03-11T11:48:28.359Z,77.39
2023-03-11T11:51:05.433Z,76.11
2023-03-11T11:53:47.895Z,74.03
2023-03-11T11:56:18.794Z,72.91
2023-03-11T11:58:49.694Z,75.56
2023-03-11T12:01:28.523Z,74.47
2023-03-11T12:04:05.865Z,73.77
2023-03-11T12:06:51.337Z,72.67
2023-03-11T12:10:10.095Z,72.31
2023-03-11T12:13:14.008Z,70.84
2023-03-11T12:16:04.386Z,70.21
2023-03-11T12:18:41.535Z,68.51
2023-03-11T12:21:43.992Z,69.88
2023-03-11T12:24:14.640Z,65.84
2023-03-11T12:26:47.843Z,65.17
2023-03-11T12:29:38.925Z,67.51
2023-03-11T12:32:09.851Z,66.76
2023-03-11T12:34:42.960Z,68.69
2023-03-11T12:37:18.210Z,64.48
2023-03-11T12:39:49.156Z,62.42
2023-03-11T12:42:23.031Z,65.08
2023-03-11T12:44:55.180Z,64.94
2023-03-11T12:47:29.872Z,64.56
2023-03-11T12:50:40.752Z,65.06
2023-03-11T12:53:21.213Z,64.08
2023-03-11T12:56:12.404Z,65.64
2023-03-11T12:59:24.176Z,62.78
2023-03-11T13:02:33.118Z,62.88
2023-03-11T13:05:41.565Z,63.73
2023-03-11T13:08:49.805Z,65.09
2023-03-11T13:11:46.148Z,64.11
2023-03-11T13:14:37.320Z,61.85
2023-03-11T13:17:28.374Z,64.75
2023-03-11T13:19:59.904Z,60.50
2023-03-11T13:22:46.623Z,58.55
2023-03-11T13:25:38.653Z,58.78
2023-03-11T13:28:10.311Z,55.00
2023-03-11T13:30:46.533Z,54.18
2023-03-11T13:33:55.994Z,58.57
2023-03-11T13:36:37.776Z,58.29
2023-03-11T13:39:14.236Z,58.82
2023-03-11T13:41:46.590Z,61.82
2023-03-11T13:44:34.971Z,55.49
2023-03-11T13:47:18.443Z,60.45
2023-03-11T13:50:10.609Z,59.29
2023-03-11T13:52:54.725Z,53.31
2023-03-11T13:55:37.493Z,61.97
2023-03-11T13:58:28.933Z,56.42
2023-03-11T14:01:04.727Z,59.46
2023-03-11T14:03:42.367Z,57.38
2023-03-11T14:06:20.996Z,58.87
2023-03-11T14:08:59.312Z,56.00
2023-03-11T14:11:31.414Z,60.56
2023-03-11T14:14:03.256Z,56.44
2023-03-11T14:16:45.145Z,55.39
2023-03-11T14:19:18.959Z,55.44
2023-03-11T14:21:55.926Z,54.21
2023-03-11T14:24:32.380Z,54.12
2023-03-11T14:27:06.140Z,57.44
2023-03-11T14:29:41.591Z,57.23
2023-03-11T14:32:30.599Z,54.36
2023-03-11T14:35:19.581Z,54.17
2023-03-11T14:37:50.835Z,56.12
2023-03-11T14:40:35.665Z,60.54
2023-03-11T14:43:08.637Z,54.81
2023-03-11T14:45:43.041Z,55.07
2023-03-11T14:48:16.276Z,56.91
2023-03-11T14:50:50.893Z,57.95
2023-03-11T14:53:38.938Z,59.00
2023-03-11T14:56:22.820Z,54.98
2023-03-11T14:59:18.118Z,57.43
2023-03-11T15:01:49.779Z,54.10
2023-03-11T15:04:34.492Z,54.29
2023-03-11T15:07:07.046Z,53.35
2023-03-11T15:09:42.079Z,56.06
2023-03-11T15:12:36.021Z,55.23
2023-03-11T15:15:24.355Z,55.71
2023-03-11T15:17:58.185Z,55.87
2023-03-11T15:20:37.965Z,55.15
2023-03-11T15:23:18.827Z,53.90
2023-03-11T15:25:51.512Z,55.90
2023-03-11T15:28:33.281Z,55.15
2023-03-11T15:31:21.897Z,55.23
2023-03-11T15:33:55.664Z,56.84
2023-03-11T15:36:56.689Z,53.25
2023-03-11T15:39:43.597Z,53.53
2023-03-11T15:42:20.047Z,56.05
2023-03-11T15:44:57.972Z,52.63
2023-03-11T15:47:29.354Z,52.47
2023-03-11T15:50:00.046Z,54.92
2023-03-11T15:52:30.900Z,56.49
2023-03-11T15:55:00.810Z,54.02
2023-03-11T15:57:32.915Z,53.41
2023-03-11T16:00:05.406Z,55.62
2023-03-11T16:02:36.464Z,54.10
2023-03-11T16:05:15.496Z,56.15
2023-03-11T16:07:48.400Z,52.24
2023-03-11T16:10:22.638Z,48.91
2023-03-11T16:12:52.586Z,56.07
2023-03-11T16:15:34.260Z,49.47
2023-03-11T16:18:08.627Z,53.46
2023-03-11T16:20:45.585Z,48.98
2023-03-11T16:23:50.631Z,53.72
2023-03-11T16:26:24.060Z,51.20
2023-03-11T16:28:56.509Z,49.38
2023-03-11T16:31:29.330Z,51.62
2023-03-11T16:33:59.533Z,50.69
2023-03-11T16:36:29.312Z,52.20
2023-03-11T16:38:59.461Z,49.90
2023-03-11T16:41:29.958Z,49.27
2023-03-11T16:44:04.781Z,53.24
2023-03-11T16:46:39.186Z,50.63
2023-03-11T16:49:10.113Z,51.75
2023-03-11T16:51:41.340Z,51.10
2023-03-11T16:54:13.487Z,48.78
2023-03-11T16:56:43.422Z,50.78
2023-03-11T16:59:13.861Z,52.38
2023-03-11T17:01:44.602Z,55.74
2023-03-11T17:04:15.014Z,52.27
2023-03-11T17:06:45.209Z,53.46
2023-03-11T17:09:15.002Z,52.95
2023-03-11T17:11:45.345Z,59.93
2023-03-11T17:14:16.944Z,59.76
2023-03-11T17:16:47.859Z,56.37
2023-03-11T17:19:17.958Z,52.18
2023-03-11T17:21:48.567Z,53.90
2023-03-11T17:24:19.205Z,54.52
2023-03-11T17:26:49.657Z,54.59
2023-03-11T17:29:21.383Z,50.42
2023-03-11T17:31:51.784Z,52.44
2023-03-11T17:34:22.685Z,50.56
2023-03-11T17:36:55.130Z,53.02
2023-03-11T17:39:25.940Z,50.85
2023-03-11T17:41:57.601Z,50.26
2023-03-11T17:44:30.077Z,50.55
2023-03-11T17:47:03.956Z,51.26
2023-03-11T17:49:34.442Z,50.58
2023-03-11T17:52:06.408Z,49.40
2023-03-11T17:54:36.763Z,49.71
2023-03-11T17:57:06.581Z,48.05
2023-03-11T17:59:37.114Z,49.74
2023-03-11T18:02:07.857Z,51.72
2023-03-11T18:04:40.267Z,48.94
2023-03-11T18:07:10.773Z,51.45
2023-03-11T18:09:40.824Z,52.14
2023-03-11T18:12:12.222Z,55.31
2023-03-11T18:14:43.945Z,52.72
2023-03-11T18:17:16.757Z,53.32
2023-03-11T18:19:48.203Z,52.10
2023-03-11T18:22:17.974Z,53.22
2023-03-11T18:24:48.543Z,52.02
2023-03-11T18:27:19.621Z,52.97
2023-03-11T18:29:49.918Z,50.51
2023-03-11T18:32:22.833Z,50.19
2023-03-11T18:34:54.905Z,50.51
2023-03-11T18:37:27.533Z,48.42
2023-03-11T18:39:57.740Z,48.97
2023-03-11T18:42:28.363Z,48.30
2023-03-11T18:44:59.867Z,47.26
2023-03-11T18:47:31.101Z,47.76
2023-03-11T18:50:01.845Z,48.47
2023-03-11T18:52:32.302Z,49.14
2023-03-11T18:55:02.990Z,48.96
2023-03-11T18:57:34.941Z,50.59
2023-03-11T19:00:05.751Z,50.95
2023-03-11T19:02:36.128Z,55.16
2023-03-11T19:05:07.493Z,62.43
2023-03-11T19:07:38.446Z,54.31
2023-03-11T19:10:09.827Z,52.14
2023-03-11T19:12:42.614Z,50.70
2023-03-11T19:15:15.508Z,49.49
2023-03-11T19:17:57.389Z,48.67
2023-03-11T19:20:34.804Z,48.13
2023-03-11T19:23:05.504Z,49.26
2023-03-11T19:25:37.928Z,48.21
2023-03-11T19:28:08.632Z,46.51
2023-03-11T19:30:38.622Z,46.81
2023-03-11T19:33:09.441Z,46.65
2023-03-11T19:35:40.224Z,46.55
2023-03-11T19:38:11.517Z,46.14
2023-03-11T19:40:41.366Z,47.21
2023-03-11T19:43:13.636Z,47.52
2023-03-11T19:45:44.079Z,47.23
2023-03-11T19:48:14.980Z,46.96
2023-03-11T19:50:45.983Z,47.47
2023-03-11T19:53:16.973Z,46.06
2023-03-11T19:55:49.936Z,47.11
2023-03-11T19:58:21.377Z,47.72
2023-03-11T20:00:51.362Z,48.05
2023-03-11T20:03:23.056Z,49.97
2023-03-11T20:05:56.906Z,50.93
2023-03-11T20:08:28.558Z,51.67
2023-03-11T20:11:03.158Z,58.72
2023-03-11T20:13:35.038Z,63.89
2023-03-11T20:16:17.328Z,65.94
2023-03-11T20:18:53.108Z,68.44
2023-03-11T20:21:24.813Z,68.88
2023-03-11T20:23:58.773Z,69.35
2023-03-11T20:26:29.562Z,70.23
2023-03-11T20:29:01.142Z,70.11
2023-03-11T20:31:32.816Z,70.37
2023-03-11T20:34:03.536Z,69.62
2023-03-11T20:36:35.403Z,71.18
2023-03-11T20:39:10.257Z,71.90
2023-03-11T20:41:42.430Z,71.97
2023-03-11T20:44:15.178Z,71.39
2023-03-11T20:46:45.953Z,72.05
2023-03-11T20:49:18.517Z,71.76
2023-03-11T20:51:49.314Z,71.53
2023-03-11T20:54:21.226Z,71.84
2023-03-11T20:56:52.395Z,72.64
2023-03-11T20:59:23.588Z,72.48
2023-03-11T21:01:53.580Z,74.10
2023-03-11T21:04:25.722Z,74.28
2023-03-11T21:06:58.550Z,74.75
2023-03-11T21:09:30.502Z,75.54
2023-03-11T21:12:02.327Z,76.41
2023-03-11T21:14:32.689Z,76.77
2023-03-11T21:17:03.146Z,77.26
2023-03-11T21:19:34.469Z,77.25
2023-03-11T21:22:05.409Z,77.96
2023-03-11T21:24:35.721Z,78.65
2023-03-11T21:27:05.986Z,79.33
2023-03-11T21:29:37.444Z,79.37
2023-03-11T21:32:08.103Z,80.02
2023-03-11T21:34:38.323Z,79.98
2023-03-11T21:37:08.342Z,80.90
2023-03-11T21:39:39.546Z,81.23
2023-03-11T21:42:10.038Z,81.27
2023-03-11T21:44:39.955Z,82.05
2023-03-11T21:47:11.271Z,82.39
2023-03-11T21:49:42.113Z,82.90
2023-03-11T21:52:12.469Z,83.23
2023-03-11T21:54:42.751Z,83.65
2023-03-11T21:57:14.319Z,83.64
2023-03-11T21:59:47.268Z,83.84
2023-03-11T22:02:19.661Z,83.76
2023-03-11T22:04:50.569Z,84.25
2023-03-11T22:07:20.530Z,84.53
2023-03-11T22:09:50.667Z,84.78
2023-03-11T22:12:20.478Z,84.53
2023-03-11T22:14:50.835Z,84.85
2023-03-11T22:17:21.676Z,84.88
2023-03-11T22:19:52.385Z,85.41
2023-03-11T22:22:22.189Z,85.67
2023-03-11T22:24:52.620Z,85.68
2023-03-11T22:27:23.752Z,85.60
2023-03-11T22:29:54.549Z,86.00
2023-03-11T22:32:24.492Z,86.09
2023-03-11T22:34:54.799Z,85.65
2023-03-11T22:37:24.581Z,85.49
2023-03-11T22:39:54.948Z,85.54
2023-03-11T22:42:25.161Z,86.16
2023-03-11T22:44:57.180Z,86.15
2023-03-11T22:47:27.120Z,86.10
2023-03-11T22:49:56.957Z,85.87
2023-03-11T22:52:27.900Z,86.41
2023-03-11T22:54:58.153Z,85.95
2023-03-11T22:57:28.086Z,85.87
2023-03-11T22:59:59.838Z,86.29
2023-03-11T23:02:30.204Z,86.43
2023-03-11T23:05:01.727Z,86.46
2023-03-11T23:07:31.577Z,86.54
2023-03-11T23:10:01.789Z,86.88
2023-03-11T23:12:32.119Z,86.64
2023-03-11T23:15:05.400Z,86.84
2023-03-11T23:17:36.771Z,86.77
2023-03-11T23:20:11.425Z,86.90
2023-03-11T23:22:43.431Z,86.75
2023-03-11T23:25:17.656Z,87.43
2023-03-11T23:27:48.437Z,87.61
2023-03-11T23:30:19.195Z,87.10
2023-03-11T23:32:48.996Z,87.70
2023-03-11T23:35:20.424Z,87.13
2023-03-11T23:37:52.623Z,86.92
2023-03-11T23:40:23.346Z,86.93
2023-03-11T23:42:53.254Z,86.80
2023-03-11T23:45:24.364Z,86.95
2023-03-11T23:47:54.777Z,86.33
2023-03-11T23:50:26.133Z,86.23
2023-03-11T23:52:56.162Z,86.12
2023-03-11T23:55:26.406Z,85.89
2023-03-11T23:57:58.564Z,86.24
